sensor_id;sensor_type;location;lat;lon;timestamp;pressure;altitude;pressure_sealevel;temperature;humidity
61740;BME280;47645;45.288;12.038;2024-03-23T00:54:49;1014.2844221699136;;;11.670703125;100
61740;BME280;47645;45.288;12.038;2024-03-23T01:04:50;1014.1459362879583;;;11.7572265625;100
61740;BME280;47645;45.288;12.038;2024-03-23T01:14:51;1014.0800005069225;;;11.691015625;100
61740;BME280;47645;45.288;12.038;2024-03-23T01:24:51;1013.9005489174118;;;11.8337890625;100
61740;BME280;47645;45.288;12.038;2024-03-23T01:34:52;1013.8755302462963;;;11.6603515625;100
61740;BME280;47645;45.288;12.038;2024-03-23T01:44:53;1013.8698018040054;;;11.573828125;100
61740;BME280;47645;45.288;12.038;2024-03-23T01:54:53;1013.7517414996271;;;11.50234375;100
61740;BME280;47645;45.288;12.038;2024-03-23T02:04:54;1013.556948031371;;;11.4005859375;100
61740;BME280;47645;45.288;12.038;2024-03-23T02:14:55;1013.5151179516739;;;11.058984375;100
61740;BME280;47645;45.288;12.038;2024-03-23T02:24:55;1013.51474558383;;;10.93671875;100
61740;BME280;47645;45.288;12.038;2024-03-23T02:34:56;1013.4701925836464;;;10.8041015625;100
61740;BME280;47645;45.288;12.038;2024-03-23T02:44:58;1013.3015794185326;;;10.8755859375;100
61740;BME280;47645;45.288;12.038;2024-03-23T02:54:57;1013.2230591155758;;;10.809375;100
61740;BME280;47645;45.288;12.038;2024-03-23T03:04:58;1013.1560958195923;;;10.85;100
61740;BME280;47645;45.288;12.038;2024-03-23T03:14:59;1013.0621126474932;;;10.8857421875;100
61740;BME280;47645;45.288;12.038;2024-03-23T03:25:00;1013.0500386006488;;;10.834765625;100
61740;BME280;47645;45.288;12.038;2024-03-23T03:35:00;1013.057422290783;;;10.83984375;100
61740;BME280;47645;45.288;12.038;2024-03-23T03:45:01;1012.9411216794666;;;10.7634765625;100
61740;BME280;47645;45.288;12.038;2024-03-23T03:55:03;1012.8335908357831;;;10.6919921875;100
61740;BME280;47645;45.288;12.038;2024-03-23T04:05:03;1012.7995871543898;;;10.5697265625;100
61740;BME280;47645;45.288;12.038;2024-03-23T04:15:04;1012.7855604963967;;;10.493359375;100
61740;BME280;47645;45.288;12.038;2024-03-23T04:25:07;1012.7104070164773;;;10.4015625;100
61740;BME280;47645;45.288;12.038;2024-03-23T04:30:06;1012.6467556608482;;;10.3251953125;100
61740;BME280;47645;45.288;12.038;2024-03-23T04:40:06;1012.6385002986863;;;10.279296875;100
61740;BME280;47645;45.288;12.038;2024-03-23T04:50:05;1012.6416832403706;;;10.1517578125;100
61740;BME280;47645;45.288;12.038;2024-03-23T05:00:16;1012.6085084473935;;;10.1466796875;100
61740;BME280;47645;45.288;12.038;2024-03-23T05:10:06;1012.5391484402148;;;10.0396484375;100
61740;BME280;47645;45.288;12.038;2024-03-23T05:20:10;1012.4017421622083;;;10.19765625;100
61740;BME280;47645;45.288;12.038;2024-03-23T05:30:08;1012.2968482111112;;;10.10078125;100
61740;BME280;47645;45.288;12.038;2024-03-23T05:40:10;1012.17140361009;;;10.10078125;100
61740;BME280;47645;45.288;12.038;2024-03-23T05:50:10;1012.1680782702388;;;9.85625;100
61740;BME280;47645;45.288;12.038;2024-03-23T06:00:16;1012.1948706698935;;;9.978515625;100
61740;BME280;47645;45.288;12.038;2024-03-23T06:10:10;1012.2379426166352;;;10.1263671875;100
61740;BME280;47645;45.288;12.038;2024-03-23T06:20:10;1012.1181394266355;;;10.1416015625;100
61740;BME280;47645;45.288;12.038;2024-03-23T06:30:12;1012.1013963794177;;;10.2078125;100
61740;BME280;47645;45.288;12.038;2024-03-23T06:40:12;1012.0392518871952;;;10.3046875;100
61740;BME280;47645;45.288;12.038;2024-03-23T06:50:12;1011.9921561790662;;;10.50859375;100
61740;BME280;47645;45.288;12.038;2024-03-23T07:00:14;1012.0082382048109;;;11.1048828125;100
61740;BME280;47645;45.288;12.038;2024-03-23T07:10:13;1011.9284235613782;;;11.70625;100
61740;BME280;47645;45.288;12.038;2024-03-23T07:20:14;1011.8888009893767;;;12.353515625;100
61740;BME280;47645;45.288;12.038;2024-03-23T07:30:14;1011.8054848273978;;;12.86328125;100
61740;BME280;47645;45.288;12.038;2024-03-23T07:40:15;1011.592887501523;;;13.60234375;100
61740;BME280;47645;45.288;12.038;2024-03-23T07:50:15;1011.4820554856996;;;14.38203125;100
61740;BME280;47645;45.288;12.038;2024-03-23T08:00:17;1011.3937331385081;;;14.78984375;100
61740;BME280;47645;45.288;12.038;2024-03-23T08:10:18;1011.2465769578029;;;14.8205078125;100
61740;BME280;47645;45.288;12.038;2024-03-23T08:20:17;1011.2136347144464;;;15.090625;100
61740;BME280;47645;45.288;12.038;2024-03-23T08:30:19;1011.1426341138083;;;15.406640625;100
61740;BME280;47645;45.288;12.038;2024-03-23T08:40:19;1011.0458363785457;;;15.758203125;100
61740;BME280;47645;45.288;12.038;2024-03-23T08:50:19;1011.0050303253807;;;16.2271484375;98.95844113610576
61740;BME280;47645;45.288;12.038;2024-03-23T09:00:20;1010.861286614594;;;16.6298828125;94.30530846354628
61740;BME280;47645;45.288;12.038;2024-03-23T09:10:23;1010.6746763840042;;;16.28828125;97.65854974282293
61740;BME280;47645;45.288;12.038;2024-03-23T09:20:22;1010.6419619437578;;;17.12421875;91.09645860513601
61740;BME280;47645;45.288;12.038;2024-03-23T09:30:22;1010.433795966581;;;17.31796875;93.58978200275166
61740;BME280;47645;45.288;12.038;2024-03-23T09:40:23;1010.2724882675873;;;17.55234375;88.16889688113413
61740;BME280;47645;45.288;12.038;2024-03-23T09:50:24;1010.3112125648091;;;17.75625;82.93608858498477
61740;BME280;47645;45.288;12.038;2024-03-23T10:00:26;1010.290558190639;;;18.4138671875;76.9843074778794
61740;BME280;47645;45.288;12.038;2024-03-23T10:10:26;1010.1145197689309;;;18.9490234375;71.24014529690977
61740;BME280;47645;45.288;12.038;2024-03-23T10:20:27;1009.9023717953037;;;19.509765625;69.3324149643419
61740;BME280;47645;45.288;12.038;2024-03-23T10:30:28;1009.8019286408536;;;20.1826171875;69.34806608261461
61740;BME280;47645;45.288;12.038;2024-03-23T10:40:29;1009.6306893044135;;;20.7330078125;63.09543158186971
61740;BME280;47645;45.288;12.038;2024-03-23T10:50:30;1009.47114855188;;;21.28359375;66.52286836684425
61740;BME280;47645;45.288;12.038;2024-03-23T11:00:31;1009.2182157661543;;;21.9767578125;66.19803224518661
61740;BME280;47645;45.288;12.038;2024-03-23T11:10:34;1008.8744674555729;;;22.4203125;55.09003326735345
61740;BME280;47645;45.288;12.038;2024-03-23T11:20:34;1008.6167139928974;;;22.562890625;54.16403746198959
61740;BME280;47645;45.288;12.038;2024-03-23T11:30:35;1008.508404931293;;;23.353125;58.686241357043095
61740;BME280;47645;45.288;12.038;2024-03-23T11:40:37;1008.3279646977712;;;23.9341796875;53.99820505727311
61740;BME280;47645;45.288;12.038;2024-03-23T11:50:38;1008.0554226514317;;;24.48984375;55.53821890955612
61740;BME280;47645;45.288;12.038;2024-03-23T12:00:38;1008.0096942926015;;;24.8619140625;57.50731849090225
61740;BME280;47645;45.288;12.038;2024-03-23T12:10:39;1007.6629197022978;;;25.1984375;46.17773780700248
61740;BME280;47645;45.288;12.038;2024-03-23T12:20:41;1007.4170123062561;;;25.03515625;54.014215387511335
61740;BME280;47645;45.288;12.038;2024-03-23T12:30:42;1007.2806637845603;;;24.6529296875;44.90923157091042
61740;BME280;47645;45.288;12.038;2024-03-23T12:40:46;1007.081139303471;;;24.209375;40.85458347773599
61740;BME280;47645;45.288;12.038;2024-03-23T12:50:44;1006.8389068395236;;;25.01484375;50.654967977883636
61740;BME280;47645;45.288;12.038;2024-03-23T13:00:46;1006.7362681713024;;;25.4125;48.30116987104912
61740;BME280;47645;45.288;12.038;2024-03-23T13:10:51;1006.597227096687;;;25.32578125;48.68195562229411
61740;BME280;47645;45.288;12.038;2024-03-23T13:20:49;1006.4173017966027;;;25.0861328125;48.43444993980738
61740;BME280;47645;45.288;12.038;2024-03-23T13:30:52;1006.3489398798586;;;25.44296875;52.447138114830565
61740;BME280;47645;45.288;12.038;2024-03-23T13:40:52;1006.1222676804443;;;25.34609375;50.893442533263894
61740;BME280;47645;45.288;12.038;2024-03-23T13:51:00;1005.9295719043082;;;25.3818359375;50.37941827015668
61740;BME280;47645;45.288;12.038;2024-03-23T14:00:56;1005.8858787254945;;;25.030078125;51.0196687659012
61740;BME280;47645;45.288;12.038;2024-03-23T14:10:56;1005.6453074305068;;;25.1931640625;54.98453947478135
61740;BME280;47645;45.288;12.038;2024-03-23T14:21:00;1005.6694131266889;;;24.301171875;42.458359073548586
61740;BME280;47645;45.288;12.038;2024-03-23T14:30:59;1005.5818314800613;;;24.10234375;50.36342869661233
61740;BME280;47645;45.288;12.038;2024-03-23T14:41:00;1005.4359218086191;;;24.2197265625;56.90211333502245
61740;BME280;47645;45.288;12.038;2024-03-23T14:51:01;1005.4725578007498;;;23.8322265625;56.132696259928515
61740;BME280;47645;45.288;12.038;2024-03-23T15:01:03;1005.0452700943249;;;24.0361328125;54.03025002239751
61740;BME280;47645;45.288;12.038;2024-03-23T15:11:06;1004.5738633261774;;;24.1279296875;60.07691292624612
61740;BME280;47645;45.288;12.038;2024-03-23T15:21:07;1004.8524527008396;;;23.6181640625;53.038755256924
61740;BME280;47645;45.288;12.038;2024-03-23T15:31:06;1004.9129052725705;;;22.9453125;46.63929400586674
61740;BME280;47645;45.288;12.038;2024-03-23T15:41:08;1004.709538994011;;;22.6087890625;54.222455169779245
61740;BME280;47645;45.288;12.038;2024-03-23T15:51:08;1004.6112702250336;;;22.6701171875;64.13020737312875
61740;BME280;47645;45.288;12.038;2024-03-23T16:01:11;1004.4762732226636;;;22.1296875;57.73048614215178
61740;BME280;47645;45.288;12.038;2024-03-23T16:11:11;1004.4198055932608;;;21.90546875;69.10834948656556
61740;BME280;47645;45.288;12.038;2024-03-23T16:21:12;1004.3175671123935;;;21.4568359375;66.82980127230498
61740;BME280;47645;45.288;12.038;2024-03-23T16:31:14;1004.2312899466356;;;21.2376953125;73.29325016967255
61740;BME280;47645;45.288;12.038;2024-03-23T16:41:16;1004.2762480823413;;;20.8859375;81.01685540903057
61740;BME280;47645;45.288;12.038;2024-03-23T16:51:16;1004.2975321063043;;;20.3048828125;76.25965426569299
61740;BME280;47645;45.288;12.038;2024-03-23T17:01:18;1004.3532371582583;;;20.1060546875;83.14890978156912
61740;BME280;47645;45.288;12.038;2024-03-23T17:11:19;1004.2611627422566;;;19.6626953125;87.08248597451443
61740;BME280;47645;45.288;12.038;2024-03-23T17:21:19;1004.1230743470028;;;19.2650390625;89.85775517993528
61740;BME280;47645;45.288;12.038;2024-03-23T17:31:21;1004.1512659264979;;;18.77578125;83.26914128838645
61740;BME280;47645;45.288;12.038;2024-03-23T17:41:21;1003.9884961358046;;;18.6482421875;91.43318174565735
61740;BME280;47645;45.288;12.038;2024-03-23T17:51:23;1003.7466239823618;;;18.286328125;90.1356571778766
61740;BME280;47645;45.288;12.038;2024-03-23T18:01:23;1003.9013728368722;;;18.07734375;85.3194561193839
61740;BME280;47645;45.288;12.038;2024-03-23T18:11:25;1003.6067890528753;;;17.7869140625;89.70010359120442
61740;BME280;47645;45.288;12.038;2024-03-23T18:21:27;1003.7627632191277;;;17.4861328125;91.87022849506428
61740;BME280;47645;45.288;12.038;2024-03-23T18:31:26;1003.6015830624855;;;17.3486328125;96.35350575541322
61740;BME280;47645;45.288;12.038;2024-03-23T18:41:29;1003.534935369884;;;16.991796875;94.04388254776602
61740;BME280;47645;45.288;12.038;2024-03-23T18:51:29;1003.7320094198309;;;17.001953125;97.93766104255887
61740;BME280;47645;45.288;12.038;2024-03-23T19:01:30;1003.7259429887695;;;16.8591796875;99.91676591218263
61740;BME280;47645;45.288;12.038;2024-03-23T19:11:31;1003.8426303638346;;;16.59921875;100
61740;BME280;47645;45.288;12.038;2024-03-23T19:21:32;1003.7957384955699;;;16.4412109375;100
61740;BME280;47645;45.288;12.038;2024-03-23T19:31:33;1003.7584436419033;;;16.278125;100
61740;BME280;47645;45.288;12.038;2024-03-23T19:41:34;1003.8263199863525;;;16.26796875;100
61740;BME280;47645;45.288;12.038;2024-03-23T19:51:35;1003.9801411645057;;;16.1048828125;100
61740;BME280;47645;45.288;12.038;2024-03-23T20:01:36;1004.1310051711553;;;15.7787109375;100
61740;BME280;47645;45.288;12.038;2024-03-23T20:11:37;1004.2804360940863;;;15.6615234375;100
61740;BME280;47645;45.288;12.038;2024-03-23T20:21:38;1004.4371609651253;;;15.8806640625;100
61740;BME280;47645;45.288;12.038;2024-03-23T20:31:39;1004.5086553756066;;;15.748046875;100
61740;BME280;47645;45.288;12.038;2024-03-23T20:41:40;1004.5819721054008;;;15.533984375;100
61740;BME280;47645;45.288;12.038;2024-03-23T20:51:41;1004.7693404183011;;;14.805078125;100
61740;BME280;47645;45.288;12.038;2024-03-23T21:01:41;1004.8907340018542;;;14.76953125;100
61740;BME280;47645;45.288;12.038;2024-03-23T21:11:43;1004.846908854516;;;15.31484375;100
61740;BME280;47645;45.288;12.038;2024-03-23T21:21:44;1004.927876212618;;;15.309765625;100
61740;BME280;47645;45.288;12.038;2024-03-23T21:31:44;1004.8894503080679;;;15.3455078125;100
61740;BME280;47645;45.288;12.038;2024-03-23T21:41:46;1004.8528042888117;;;15.2486328125;100
61740;BME280;47645;45.288;12.038;2024-03-23T21:51:49;1004.9545520629299;;;14.901953125;100
61740;BME280;47645;45.288;12.038;2024-03-23T22:01:48;1004.8649345067228;;;14.9173828125;100
61740;BME280;47645;45.288;12.038;2024-03-23T22:11:48;1004.7509202542482;;;14.8154296875;100
61740;BME280;47645;45.288;12.038;2024-03-23T22:21:50;1004.8543028692626;;;14.9734375;100
61740;BME280;47645;45.288;12.038;2024-03-23T22:31:50;1004.6887166274447;;;15.08046875;100
61740;BME280;47645;45.288;12.038;2024-03-23T22:41:51;1004.8318237399446;;;14.8255859375;100
61740;BME280;47645;45.288;12.038;2024-03-23T22:51:52;1004.782531671605;;;14.759375;100
61740;BME280;47645;45.288;12.038;2024-03-23T23:01:53;1004.8089627208547;;;14.6470703125;100
61740;BME280;47645;45.288;12.038;2024-03-23T23:11:54;1004.8202889924906;;;14.1783203125;100
61740;BME280;47645;45.288;12.038;2024-03-23T23:21:55;1004.7948740510069;;;14.1732421875;100
61740;BME280;47645;45.288;12.038;2024-03-23T23:31:56;1004.9301373698445;;;14.229296875;100
61740;BME280;47645;45.288;12.038;2024-03-23T23:41:57;1004.9616166303568;;;14.249609375;100
61740;BME280;47645;45.288;12.038;2024-03-23T23:51:57;1005.2167935848236;;;14.239453125;100
